메인 페이지
METAR-TAF:

METAR-TAF

공항 :

에센보아 국제공항

앙카라 Esenboğa, 터키

위도: 40-07N, 경도: 032-59E, 고도: 953m

현재 날씨관측

예보는 39분 전, 02:20시(UTC)에 발표되었습니다.
여러 방향의 바람 2kt
온도 0°C
습도 86%
기압 1019 hPa
시정 10km 이상
1500m 미만 상공 구름 및 적란운 없음

METAR: LTAC 190220Z VRB02KT CAVOK M00/M02 Q1019 NOSIG RMK RWY21L 35004KT RWY03L VRB01KT RWY21R 01004KT

시각: 05:59 (02:59 UTC)

예보

예보는 4 시간 19분 전, 22:40시(UTC)에 발표되었습니다.
예보 대상 시간: 19일 00시부터 19일 24시까지 (UTC)
여러 방향의 바람 2kt
시정 10km 이상
1500m 미만 상공 구름 및 적란운 없음
전환 중
19일 07시부터 19일 09시까지 (UTC)
고도 4000ft 상공 구름 보통
전환 중
19일 15시부터 19일 18시까지 (UTC)
시정 10km 이상
1500m 미만 상공 구름 및 적란운 없음

TAF: LTAC 182240Z 1900/1924 VRB02KT CAVOK BECMG 1907/1909 SCT040 BECMG 1915/1918 CAVOK

4,000개 이상의 공항 관측 자료 및 예보 (METAR 및 TAF 보고).

지도상에서 검색 가능한 기상관측소가 노란 점과 빨간 점으로 표시되어 있습니다.

기상관측소 명을 보려면 표시 위로 마우스를 이동하세요.

날씨 관측과 예보를 보려면 클릭하세요.

지도 변경 : 확대하려면 엑스 표시가 있는 녹색 버튼, 축소하려면 빼기 표시가 있는 녹색 버튼, 다음 페이지의 지도를 보려면 녹색 화살표를 클릭하세요.


METAR-TAF: